MQC97D GMME-EDDK
Flight info
| Callsign | MQC97D |
|---|---|
| Flight time | 2h 44m |
| Altitude | 34000 |
| Route | TOLSI UG5 KORIS L27 VJF N10 HIJ Z230 TLD N858 ABRIX DCT ETPAR DCT BOKNO UN858 TABOV UM163 TSU DCT DIK T856 ERUKI DCT DEPOK DEPO2C |
| Aircraft | B738/M-SDE2E3FGHIRWXY/LB1 |
Departure
| Time | 2026-05-04 05:48 |
|---|---|
| Airport | Rabat-Salé Airport (GMME) |
Arrival
| Time | 2026-05-04 08:33 |
|---|---|
| Airport | Cologne Bonn Airport (EDDK) |
| Time | Latitude | Longitude | Altitude | Speed | Heading |
|---|---|---|---|---|---|
| 2026-05-04 05:34 | 34.03847 | -6.75019 | 279 ft | 0 kts | 94° |
| 2026-05-04 05:42 | 34.03847 | -6.75018 | 279 ft | 2 kts | 92° |
| 2026-05-04 05:42 | 34.03875 | -6.75015 | 282 ft | 9 kts | 310° |
| 2026-05-04 05:43 | 34.03843 | -6.75069 | 280 ft | 9 kts | 220° |
| 2026-05-04 05:43 | 34.03858 | -6.75134 | 281 ft | 9 kts | 307° |
| 2026-05-04 05:43 | 34.03893 | -6.75195 | 282 ft | 9 kts | 301° |
| 2026-05-04 05:45 | 34.03977 | -6.75757 | 282 ft | 13 kts | 212° |
| 2026-05-04 05:45 | 34.03900 | -6.75815 | 283 ft | 13 kts | 212° |
| 2026-05-04 05:47 | 34.04277 | -6.75787 | 279 ft | 94 kts | 31° |
| 2026-05-04 05:47 | 34.05023 | -6.75248 | 275 ft | 153 kts | 31° |
| 2026-05-04 05:47 | 34.05983 | -6.74564 | 667 ft | 172 kts | 31° |
| 2026-05-04 05:48 | 34.07131 | -6.73724 | 857 ft | 207 kts | 30° |
| 2026-05-04 05:48 | 34.08429 | -6.72775 | 1216 ft | 224 kts | 31° |
| 2026-05-04 05:48 | 34.09756 | -6.71865 | 2070 ft | 215 kts | 19° |
| 2026-05-04 05:48 | 34.11242 | -6.71829 | 2458 ft | 224 kts | 338° |
| 2026-05-04 05:49 | 34.12475 | -6.73045 | 2654 ft | 242 kts | 304° |
| 2026-05-04 05:49 | 34.13461 | -6.74767 | 3038 ft | 255 kts | 306° |
| 2026-05-04 05:49 | 34.14540 | -6.76489 | 3713 ft | 256 kts | 308° |
| 2026-05-04 05:49 | 34.15656 | -6.78201 | 4315 ft | 261 kts | 311° |
| 2026-05-04 05:51 | 34.27743 | -6.84858 | 8739 ft | 285 kts | 333° |
| 2026-05-04 05:51 | 34.29574 | -6.85815 | 9401 ft | 288 kts | 333° |
| 2026-05-04 05:52 | 34.31427 | -6.86775 | 10047 ft | 292 kts | 333° |
| 2026-05-04 05:52 | 34.33326 | -6.87756 | 10444 ft | 306 kts | 333° |
| 2026-05-04 05:52 | 34.35353 | -6.88804 | 10603 ft | 327 kts | 333° |
| 2026-05-04 05:52 | 34.37511 | -6.89914 | 10792 ft | 346 kts | 333° |
| 2026-05-04 05:53 | 34.39760 | -6.91066 | 11222 ft | 355 kts | 333° |
| 2026-05-04 05:54 | 34.55373 | -6.99071 | 15411 ft | 377 kts | 331° |
| 2026-05-04 05:55 | 34.57862 | -7.00168 | 16007 ft | 387 kts | 341° |
| 2026-05-04 05:55 | 34.60595 | -7.00394 | 16591 ft | 403 kts | 1° |
| 2026-05-04 05:55 | 34.63352 | -6.99620 | 17181 ft | 414 kts | 18° |
| 2026-05-04 05:55 | 34.65983 | -6.98109 | 17718 ft | 422 kts | 24° |
| 2026-05-04 05:56 | 34.68583 | -6.96398 | 18207 ft | 428 kts | 26° |
| 2026-05-04 05:56 | 34.71200 | -6.94641 | 18741 ft | 431 kts | 25° |
| 2026-05-04 05:56 | 34.73850 | -6.92909 | 19291 ft | 434 kts | 24° |
| 2026-05-04 05:56 | 34.76552 | -6.91251 | 19821 ft | 436 kts | 22° |
| 2026-05-04 05:57 | 34.79290 | -6.89619 | 20314 ft | 440 kts | 22° |
| 2026-05-04 05:57 | 34.82052 | -6.87975 | 20793 ft | 444 kts | 22° |
| 2026-05-04 05:57 | 34.84828 | -6.86309 | 21263 ft | 447 kts | 22° |
| 2026-05-04 05:57 | 34.87620 | -6.84615 | 21726 ft | 450 kts | 22° |
| 2026-05-04 05:58 | 34.90429 | -6.82896 | 22169 ft | 453 kts | 22° |
| 2026-05-04 05:58 | 34.93256 | -6.81155 | 22583 ft | 457 kts | 22° |
| 2026-05-04 05:58 | 34.96103 | -6.79396 | 23006 ft | 460 kts | 22° |
| 2026-05-04 05:58 | 34.98968 | -6.77622 | 23393 ft | 464 kts | 22° |
| 2026-05-04 05:59 | 35.01858 | -6.75834 | 23779 ft | 467 kts | 22° |
| 2026-05-04 05:59 | 35.04761 | -6.74037 | 24189 ft | 469 kts | 22° |
| 2026-05-04 05:59 | 35.07680 | -6.72229 | 24565 ft | 472 kts | 22° |
| 2026-05-04 05:59 | 35.10617 | -6.70409 | 24920 ft | 475 kts | 22° |
| 2026-05-04 06:00 | 35.13576 | -6.68575 | 25281 ft | 478 kts | 22° |
| 2026-05-04 06:00 | 35.16548 | -6.66731 | 25615 ft | 481 kts | 22° |
| 2026-05-04 06:00 | 35.19538 | -6.64874 | 25972 ft | 484 kts | 22° |
| 2026-05-04 06:00 | 35.22546 | -6.63004 | 26330 ft | 486 kts | 21° |
| 2026-05-04 06:01 | 35.25566 | -6.61125 | 26652 ft | 489 kts | 21° |
| 2026-05-04 06:01 | 35.28608 | -6.59231 | 26940 ft | 492 kts | 21° |
| 2026-05-04 06:03 | 35.50299 | -6.45575 | 28901 ft | 510 kts | 22° |
| 2026-05-04 06:03 | 35.53434 | -6.43514 | 29149 ft | 513 kts | 22° |
| 2026-05-04 06:05 | 35.75708 | -6.28881 | 31004 ft | 520 kts | 22° |
| 2026-05-04 06:05 | 35.82096 | -6.24692 | 31583 ft | 519 kts | 22° |
| 2026-05-04 06:05 | 35.85286 | -6.22608 | 31884 ft | 518 kts | 21° |
| 2026-05-04 06:06 | 35.88479 | -6.20553 | 32154 ft | 518 kts | 21° |
| 2026-05-04 06:06 | 35.91676 | -6.18507 | 32448 ft | 517 kts | 21° |
| 2026-05-04 06:06 | 35.94867 | -6.16457 | 32735 ft | 517 kts | 21° |
| 2026-05-04 06:06 | 35.98053 | -6.14400 | 32982 ft | 517 kts | 21° |
| 2026-05-04 06:07 | 36.01234 | -6.12341 | 33244 ft | 516 kts | 21° |
| 2026-05-04 06:07 | 36.04371 | -6.10305 | 33507 ft | 516 kts | 21° |
| 2026-05-04 06:07 | 36.07541 | -6.08245 | 33797 ft | 514 kts | 21° |
| 2026-05-04 06:07 | 36.10704 | -6.06189 | 34071 ft | 513 kts | 20° |
| 2026-05-04 06:08 | 36.13868 | -6.04132 | 34289 ft | 514 kts | 20° |
| 2026-05-04 06:08 | 36.17032 | -6.02076 | 34506 ft | 513 kts | 21° |
| 2026-05-04 06:08 | 36.20230 | -5.99995 | 34758 ft | 512 kts | 20° |
| 2026-05-04 06:08 | 36.23465 | -5.98269 | 34973 ft | 500 kts | 9° |
| 2026-05-04 06:09 | 36.26802 | -5.97172 | 35211 ft | 493 kts | 4° |
| 2026-05-04 06:09 | 36.30159 | -5.96369 | 35372 ft | 490 kts | 0° |
| 2026-05-04 06:11 | 36.53666 | -5.92318 | 36741 ft | 486 kts | 359° |
| 2026-05-04 06:11 | 36.56958 | -5.91726 | 37037 ft | 483 kts | 359° |
| 2026-05-04 06:13 | 36.80022 | -5.87581 | 37045 ft | 476 kts | 359° |
| 2026-05-04 06:14 | 37.03114 | -5.83421 | 37038 ft | 481 kts | 359° |
| 2026-05-04 06:15 | 37.09750 | -5.82219 | 37026 ft | 482 kts | 359° |
| 2026-05-04 06:15 | 37.16382 | -5.81015 | 37021 ft | 482 kts | 359° |
| 2026-05-04 06:16 | 37.23015 | -5.79808 | 37027 ft | 481 kts | 359° |
| 2026-05-04 06:16 | 37.29646 | -5.78601 | 37021 ft | 481 kts | 359° |
| 2026-05-04 06:17 | 37.36272 | -5.77393 | 37021 ft | 481 kts | 359° |
| 2026-05-04 06:17 | 37.42885 | -5.75981 | 37003 ft | 489 kts | 7° |
| 2026-05-04 06:18 | 37.46087 | -5.74374 | 37023 ft | 502 kts | 21° |
| 2026-05-04 06:18 | 37.49157 | -5.72256 | 37025 ft | 505 kts | 23° |
| 2026-05-04 06:20 | 37.74288 | -5.57160 | 37018 ft | 501 kts | 18° |
| 2026-05-04 06:21 | 37.89960 | -5.47563 | 37016 ft | 501 kts | 18° |
| 2026-05-04 06:22 | 37.96232 | -5.43723 | 37021 ft | 501 kts | 18° |
| 2026-05-04 06:25 | 38.40134 | -5.16638 | 37016 ft | 500 kts | 19° |
| 2026-05-04 06:26 | 38.46387 | -5.12750 | 37018 ft | 500 kts | 19° |
| 2026-05-04 06:26 | 38.52666 | -5.08917 | 37020 ft | 498 kts | 17° |
| 2026-05-04 06:27 | 38.68710 | -5.00833 | 37028 ft | 496 kts | 14° |
| 2026-05-04 06:28 | 38.75131 | -4.97555 | 37028 ft | 497 kts | 15° |
| 2026-05-04 06:28 | 38.81538 | -4.94248 | 37028 ft | 497 kts | 15° |
| 2026-05-04 06:29 | 38.87955 | -4.90932 | 37030 ft | 497 kts | 15° |
| 2026-05-04 06:29 | 38.94372 | -4.87615 | 37023 ft | 497 kts | 15° |
| 2026-05-04 06:30 | 39.00800 | -4.84288 | 37009 ft | 498 kts | 15° |
| 2026-05-04 06:30 | 39.07223 | -4.80951 | 37013 ft | 498 kts | 15° |
| 2026-05-04 06:31 | 39.13644 | -4.77605 | 37007 ft | 498 kts | 15° |
| 2026-05-04 06:31 | 39.20067 | -4.74254 | 37005 ft | 497 kts | 15° |
| 2026-05-04 06:33 | 39.45716 | -4.60860 | 36998 ft | 497 kts | 15° |
| 2026-05-04 06:34 | 39.52127 | -4.57495 | 36996 ft | 497 kts | 16° |
| 2026-05-04 06:34 | 39.58522 | -4.54131 | 37013 ft | 496 kts | 16° |
| 2026-05-04 06:36 | 39.83054 | -4.41153 | 37004 ft | 496 kts | 16° |
| 2026-05-04 06:37 | 39.89437 | -4.37719 | 37004 ft | 497 kts | 17° |
| 2026-05-04 06:37 | 39.95842 | -4.34271 | 37002 ft | 498 kts | 17° |
| 2026-05-04 06:38 | 40.02213 | -4.30663 | 37001 ft | 501 kts | 19° |
| 2026-05-04 06:40 | 40.27457 | -4.15060 | 36993 ft | 501 kts | 19° |
| 2026-05-04 06:40 | 40.33771 | -4.11194 | 36992 ft | 501 kts | 19° |
| 2026-05-04 06:41 | 40.40077 | -4.07322 | 36989 ft | 500 kts | 20° |
| 2026-05-04 06:41 | 40.46367 | -4.03446 | 36994 ft | 499 kts | 20° |
| 2026-05-04 06:42 | 40.52653 | -3.99564 | 36983 ft | 498 kts | 20° |
| 2026-05-04 06:44 | 40.77681 | -3.84033 | 36991 ft | 496 kts | 20° |
| 2026-05-04 06:44 | 40.83882 | -3.80165 | 36984 ft | 496 kts | 20° |
| 2026-05-04 06:45 | 40.90154 | -3.76243 | 36991 ft | 495 kts | 20° |
| 2026-05-04 06:45 | 40.96333 | -3.72373 | 36995 ft | 494 kts | 21° |
| 2026-05-04 06:46 | 41.02549 | -3.68470 | 36991 ft | 494 kts | 21° |
| 2026-05-04 06:46 | 41.08764 | -3.64560 | 36993 ft | 495 kts | 21° |
| 2026-05-04 06:48 | 41.34050 | -3.50205 | 36992 ft | 494 kts | 18° |
| 2026-05-04 06:50 | 41.59475 | -3.36198 | 36991 ft | 494 kts | 18° |
| 2026-05-04 06:51 | 41.65825 | -3.32689 | 36990 ft | 493 kts | 18° |
| 2026-05-04 06:51 | 41.72163 | -3.29179 | 36992 ft | 493 kts | 18° |
| 2026-05-04 06:52 | 41.78502 | -3.25660 | 36989 ft | 493 kts | 18° |
| 2026-05-04 06:52 | 41.84837 | -3.22136 | 36992 ft | 493 kts | 18° |
| 2026-05-04 06:53 | 41.91171 | -3.18604 | 36992 ft | 493 kts | 18° |
| 2026-05-04 06:53 | 41.97497 | -3.15068 | 36990 ft | 492 kts | 18° |
| 2026-05-04 06:54 | 42.03819 | -3.11527 | 36994 ft | 492 kts | 19° |
| 2026-05-04 06:54 | 42.10138 | -3.07981 | 36983 ft | 492 kts | 19° |
| 2026-05-04 06:55 | 42.16463 | -3.04423 | 36982 ft | 492 kts | 19° |
| 2026-05-04 06:55 | 42.22768 | -3.00868 | 36975 ft | 491 kts | 19° |
| 2026-05-04 06:57 | 42.47890 | -2.86456 | 36977 ft | 491 kts | 24° |
| 2026-05-04 06:58 | 42.53884 | -2.82006 | 36973 ft | 492 kts | 28° |
| 2026-05-04 06:58 | 42.59788 | -2.77302 | 36977 ft | 492 kts | 27° |
| 2026-05-04 06:59 | 42.65721 | -2.72677 | 36968 ft | 492 kts | 27° |
| 2026-05-04 06:59 | 42.71685 | -2.68131 | 36970 ft | 491 kts | 26° |
| 2026-05-04 07:01 | 42.92601 | -2.52202 | 37931 ft | 491 kts | 27° |
| 2026-05-04 07:01 | 42.95578 | -2.49922 | 37960 ft | 490 kts | 27° |
| 2026-05-04 07:02 | 43.01538 | -2.45349 | 37978 ft | 493 kts | 27° |
| 2026-05-04 07:02 | 43.07489 | -2.40771 | 37982 ft | 495 kts | 27° |
| 2026-05-04 07:03 | 43.13500 | -2.36136 | 37976 ft | 496 kts | 27° |
| 2026-05-04 07:03 | 43.19554 | -2.31456 | 37979 ft | 497 kts | 27° |
| 2026-05-04 07:04 | 43.25576 | -2.26791 | 37977 ft | 497 kts | 27° |
| 2026-05-04 07:04 | 43.31597 | -2.22116 | 37976 ft | 497 kts | 27° |
| 2026-05-04 07:05 | 43.37602 | -2.17445 | 37971 ft | 495 kts | 27° |
| 2026-05-04 07:05 | 43.43580 | -2.12782 | 37969 ft | 493 kts | 27° |
| 2026-05-04 07:06 | 43.52495 | -2.05808 | 37965 ft | 490 kts | 27° |
| 2026-05-04 07:07 | 43.58413 | -2.01166 | 37965 ft | 489 kts | 28° |
| 2026-05-04 07:09 | 43.82518 | -1.83893 | 37970 ft | 489 kts | 24° |
| 2026-05-04 07:09 | 43.88572 | -1.79716 | 37965 ft | 490 kts | 25° |
| 2026-05-04 07:10 | 43.94669 | -1.75466 | 37967 ft | 491 kts | 25° |
| 2026-05-04 07:12 | 44.19139 | -1.58313 | 37953 ft | 494 kts | 25° |
| 2026-05-04 07:12 | 44.25275 | -1.53989 | 37940 ft | 495 kts | 25° |
| 2026-05-04 07:13 | 44.31422 | -1.49646 | 37947 ft | 495 kts | 25° |
| 2026-05-04 07:13 | 44.37559 | -1.45301 | 37939 ft | 494 kts | 25° |
| 2026-05-04 07:14 | 44.52858 | -1.34426 | 37939 ft | 492 kts | 25° |
| 2026-05-04 07:15 | 44.58955 | -1.30073 | 37945 ft | 491 kts | 25° |
| 2026-05-04 07:15 | 44.65039 | -1.25717 | 37938 ft | 491 kts | 25° |
| 2026-05-04 07:16 | 44.71116 | -1.21357 | 37936 ft | 490 kts | 25° |
| 2026-05-04 07:16 | 44.77177 | -1.17001 | 37938 ft | 489 kts | 25° |
| 2026-05-04 07:17 | 44.83228 | -1.12641 | 37937 ft | 488 kts | 25° |
| 2026-05-04 07:17 | 44.89274 | -1.08271 | 37949 ft | 488 kts | 25° |
| 2026-05-04 07:18 | 44.94293 | -1.04635 | 37942 ft | 488 kts | 25° |
| 2026-05-04 07:18 | 45.00328 | -1.00257 | 37940 ft | 488 kts | 25° |
| 2026-05-04 07:19 | 45.06371 | -0.95863 | 37945 ft | 488 kts | 26° |
| 2026-05-04 07:19 | 45.12413 | -0.91457 | 37945 ft | 489 kts | 26° |
| 2026-05-04 07:20 | 45.18468 | -0.87031 | 37947 ft | 490 kts | 26° |
| 2026-05-04 07:20 | 45.24473 | -0.82443 | 37950 ft | 490 kts | 28° |
| 2026-05-04 07:22 | 45.48137 | -0.63019 | 37960 ft | 491 kts | 28° |
| 2026-05-04 07:23 | 45.54106 | -0.58143 | 37965 ft | 491 kts | 28° |
| 2026-05-04 07:23 | 45.59999 | -0.53317 | 37962 ft | 492 kts | 28° |
| 2026-05-04 07:24 | 45.65929 | -0.48445 | 37955 ft | 492 kts | 28° |
| 2026-05-04 07:24 | 45.71856 | -0.43559 | 37958 ft | 492 kts | 28° |
| 2026-05-04 07:26 | 45.95536 | -0.23927 | 37966 ft | 491 kts | 29° |
| 2026-05-04 07:27 | 46.01449 | -0.18993 | 37960 ft | 491 kts | 29° |
| 2026-05-04 07:27 | 46.07357 | -0.14053 | 37957 ft | 491 kts | 29° |
| 2026-05-04 07:28 | 46.13251 | -0.09111 | 37955 ft | 489 kts | 29° |
| 2026-05-04 07:28 | 46.19126 | -0.04171 | 37954 ft | 488 kts | 30° |
| 2026-05-04 07:29 | 46.24984 | 0.00766 | 37959 ft | 486 kts | 30° |
| 2026-05-04 07:29 | 46.30822 | 0.05698 | 37961 ft | 486 kts | 30° |
| 2026-05-04 07:30 | 46.36658 | 0.10641 | 37961 ft | 486 kts | 30° |
| 2026-05-04 07:30 | 46.42495 | 0.15597 | 37963 ft | 487 kts | 30° |
| 2026-05-04 07:31 | 46.48345 | 0.20575 | 37967 ft | 488 kts | 30° |
| 2026-05-04 07:33 | 46.71842 | 0.40703 | 37961 ft | 491 kts | 30° |
| 2026-05-04 07:33 | 46.77726 | 0.45774 | 37959 ft | 492 kts | 30° |
| 2026-05-04 07:34 | 46.83618 | 0.50867 | 37970 ft | 492 kts | 30° |
| 2026-05-04 07:34 | 46.89496 | 0.55961 | 37956 ft | 491 kts | 30° |
| 2026-05-04 07:35 | 46.95370 | 0.61064 | 37965 ft | 490 kts | 30° |
| 2026-05-04 07:35 | 47.01229 | 0.66137 | 37952 ft | 489 kts | 28° |
| 2026-05-04 07:36 | 47.07449 | 0.70018 | 37945 ft | 483 kts | 8° |
| 2026-05-04 07:38 | 47.33907 | 0.72262 | 37966 ft | 478 kts | 1° |
| 2026-05-04 07:38 | 47.40543 | 0.72953 | 37967 ft | 478 kts | 1° |
| 2026-05-04 07:39 | 47.47192 | 0.73644 | 37961 ft | 479 kts | 2° |
| 2026-05-04 07:39 | 47.53716 | 0.75754 | 37988 ft | 484 kts | 20° |
| 2026-05-04 07:40 | 47.59982 | 0.79447 | 37972 ft | 485 kts | 17° |
| 2026-05-04 07:40 | 47.66433 | 0.82374 | 37965 ft | 485 kts | 14° |
| 2026-05-04 07:41 | 47.72885 | 0.85313 | 37967 ft | 486 kts | 16° |
| 2026-05-04 07:41 | 47.79296 | 0.88505 | 37959 ft | 486 kts | 17° |
| 2026-05-04 07:42 | 47.85650 | 0.91998 | 37961 ft | 488 kts | 24° |
| 2026-05-04 07:42 | 47.91520 | 0.97053 | 37961 ft | 488 kts | 33° |
| 2026-05-04 07:43 | 47.97173 | 1.02656 | 37969 ft | 488 kts | 33° |
| 2026-05-04 07:43 | 48.02882 | 1.08099 | 37979 ft | 487 kts | 31° |
| 2026-05-04 07:44 | 48.08657 | 1.13393 | 37963 ft | 486 kts | 31° |
| 2026-05-04 07:44 | 48.14427 | 1.18637 | 37963 ft | 485 kts | 31° |
| 2026-05-04 07:45 | 48.20186 | 1.23895 | 37981 ft | 484 kts | 31° |
| 2026-05-04 07:45 | 48.25914 | 1.29155 | 37971 ft | 482 kts | 31° |
| 2026-05-04 07:46 | 48.31624 | 1.34424 | 37979 ft | 480 kts | 31° |
| 2026-05-04 07:46 | 48.37315 | 1.39684 | 37985 ft | 480 kts | 31° |
| 2026-05-04 07:47 | 48.42996 | 1.44942 | 37984 ft | 479 kts | 31° |
| 2026-05-04 07:49 | 48.64780 | 1.67845 | 37998 ft | 478 kts | 58° |
| 2026-05-04 07:49 | 48.66353 | 1.72249 | 37987 ft | 475 kts | 71° |
| 2026-05-04 07:49 | 48.67458 | 1.76943 | 38005 ft | 473 kts | 75° |
| 2026-05-04 07:50 | 48.69502 | 1.86447 | 37990 ft | 476 kts | 72° |
| 2026-05-04 07:50 | 48.71879 | 1.95822 | 37993 ft | 478 kts | 71° |
| 2026-05-04 07:51 | 48.74031 | 2.04459 | 37989 ft | 478 kts | 72° |
| 2026-05-04 07:51 | 48.76285 | 2.13941 | 37990 ft | 479 kts | 73° |
| 2026-05-04 07:52 | 48.78432 | 2.23500 | 37993 ft | 479 kts | 74° |
| 2026-05-04 07:52 | 48.80551 | 2.33079 | 37986 ft | 479 kts | 74° |
| 2026-05-04 07:54 | 48.89001 | 2.71292 | 37993 ft | 476 kts | 74° |
| 2026-05-04 07:55 | 48.91086 | 2.80822 | 37986 ft | 475 kts | 74° |
| 2026-05-04 07:55 | 48.93164 | 2.90367 | 37990 ft | 475 kts | 75° |
| 2026-05-04 07:56 | 48.95230 | 2.99905 | 38000 ft | 474 kts | 75° |
| 2026-05-04 07:56 | 48.97287 | 3.09429 | 37987 ft | 474 kts | 75° |
| 2026-05-04 07:57 | 48.99331 | 3.18947 | 37993 ft | 473 kts | 75° |
| 2026-05-04 07:57 | 49.01365 | 3.28452 | 37989 ft | 472 kts | 75° |
| 2026-05-04 07:58 | 49.03390 | 3.37964 | 37997 ft | 472 kts | 75° |
| 2026-05-04 07:58 | 49.05406 | 3.47485 | 37991 ft | 473 kts | 75° |
| 2026-05-04 07:59 | 49.07080 | 3.55418 | 37989 ft | 473 kts | 75° |
| 2026-05-04 07:59 | 49.09092 | 3.64989 | 37997 ft | 474 kts | 75° |
| 2026-05-04 08:00 | 49.11097 | 3.74590 | 37997 ft | 476 kts | 75° |
| 2026-05-04 08:02 | 49.19080 | 4.13273 | 37992 ft | 478 kts | 75° |
| 2026-05-04 08:02 | 49.21061 | 4.22971 | 37991 ft | 478 kts | 76° |
| 2026-05-04 08:03 | 49.23033 | 4.32677 | 37993 ft | 477 kts | 76° |
| 2026-05-04 08:03 | 49.24991 | 4.42368 | 37990 ft | 476 kts | 76° |
| 2026-05-04 08:04 | 49.26935 | 4.52036 | 37992 ft | 475 kts | 76° |
| 2026-05-04 08:04 | 49.28865 | 4.61697 | 38007 ft | 474 kts | 76° |
| 2026-05-04 08:05 | 49.30788 | 4.71350 | 37995 ft | 473 kts | 76° |
| 2026-05-04 08:05 | 49.32712 | 4.81057 | 38003 ft | 472 kts | 76° |
| 2026-05-04 08:06 | 49.34597 | 4.90634 | 38001 ft | 472 kts | 76° |
| 2026-05-04 08:06 | 49.36491 | 5.00301 | 37786 ft | 478 kts | 76° |
| 2026-05-04 08:08 | 49.43088 | 5.34324 | 35276 ft | 469 kts | 76° |
| 2026-05-04 08:08 | 49.44007 | 5.39119 | 34639 ft | 468 kts | 76° |
| 2026-05-04 08:10 | 49.52308 | 5.77602 | 30173 ft | 476 kts | 51° |
| 2026-05-04 08:11 | 49.54561 | 5.81297 | 29471 ft | 472 kts | 38° |
| 2026-05-04 08:11 | 49.59968 | 5.86651 | 28480 ft | 456 kts | 27° |
| 2026-05-04 08:11 | 49.62684 | 5.89131 | 27990 ft | 451 kts | 29° |
| 2026-05-04 08:12 | 49.65298 | 5.91742 | 27517 ft | 445 kts | 31° |
| 2026-05-04 08:12 | 49.67850 | 5.94402 | 27046 ft | 439 kts | 32° |
| 2026-05-04 08:12 | 49.70365 | 5.97031 | 26582 ft | 434 kts | 32° |
| 2026-05-04 08:12 | 49.72864 | 5.99607 | 26128 ft | 429 kts | 31° |
| 2026-05-04 08:13 | 49.75342 | 6.02126 | 25674 ft | 425 kts | 31° |
| 2026-05-04 08:13 | 49.77823 | 6.04630 | 25230 ft | 429 kts | 31° |
| 2026-05-04 08:13 | 49.80353 | 6.07178 | 24784 ft | 438 kts | 32° |
| 2026-05-04 08:13 | 49.82899 | 6.09749 | 24286 ft | 434 kts | 32° |
| 2026-05-04 08:14 | 49.85408 | 6.12284 | 23817 ft | 427 kts | 32° |
| 2026-05-04 08:14 | 49.87942 | 6.14595 | 23459 ft | 417 kts | 26° |
| 2026-05-04 08:14 | 49.90528 | 6.16511 | 23063 ft | 409 kts | 21° |
| 2026-05-04 08:16 | 50.08241 | 6.28824 | 20001 ft | 404 kts | 24° |
| 2026-05-04 08:16 | 50.10765 | 6.30698 | 19542 ft | 399 kts | 24° |
| 2026-05-04 08:16 | 50.13253 | 6.32538 | 19087 ft | 392 kts | 23° |
| 2026-05-04 08:17 | 50.15701 | 6.34345 | 18649 ft | 387 kts | 23° |
| 2026-05-04 08:17 | 50.18116 | 6.36126 | 18214 ft | 381 kts | 23° |
| 2026-05-04 08:17 | 50.20499 | 6.37884 | 17781 ft | 376 kts | 23° |
| 2026-05-04 08:17 | 50.22845 | 6.39617 | 17353 ft | 371 kts | 23° |
| 2026-05-04 08:19 | 50.38741 | 6.51810 | 14467 ft | 367 kts | 31° |
| 2026-05-04 08:19 | 50.40842 | 6.54022 | 14042 ft | 362 kts | 34° |
| 2026-05-04 08:20 | 50.42877 | 6.56300 | 13619 ft | 356 kts | 35° |
| 2026-05-04 08:20 | 50.44881 | 6.58530 | 13213 ft | 351 kts | 34° |
| 2026-05-04 08:20 | 50.46874 | 6.60685 | 12804 ft | 346 kts | 33° |
| 2026-05-04 08:20 | 50.48855 | 6.62780 | 12400 ft | 341 kts | 33° |
| 2026-05-04 08:21 | 50.50819 | 6.64833 | 12010 ft | 337 kts | 33° |
| 2026-05-04 08:21 | 50.52770 | 6.66869 | 11617 ft | 337 kts | 33° |
| 2026-05-04 08:21 | 50.54724 | 6.68912 | 11233 ft | 338 kts | 33° |
| 2026-05-04 08:21 | 50.56698 | 6.70983 | 11034 ft | 344 kts | 33° |
| 2026-05-04 08:22 | 50.58674 | 6.73061 | 10991 ft | 337 kts | 33° |
| 2026-05-04 08:22 | 50.60663 | 6.74860 | 10983 ft | 322 kts | 19° |
| 2026-05-04 08:24 | 50.74907 | 6.75751 | 9094 ft | 288 kts | 358° |
| 2026-05-04 08:24 | 50.76912 | 6.75831 | 8761 ft | 287 kts | 358° |
| 2026-05-04 08:24 | 50.78905 | 6.75908 | 8422 ft | 286 kts | 358° |
| 2026-05-04 08:24 | 50.80884 | 6.75980 | 8093 ft | 284 kts | 358° |
| 2026-05-04 08:25 | 50.82853 | 6.76051 | 7761 ft | 282 kts | 358° |
| 2026-05-04 08:25 | 50.84804 | 6.76115 | 7433 ft | 280 kts | 357° |
| 2026-05-04 08:25 | 50.86746 | 6.76176 | 7056 ft | 278 kts | 358° |
| 2026-05-04 08:25 | 50.88677 | 6.76238 | 6709 ft | 276 kts | 358° |
| 2026-05-04 08:26 | 50.90383 | 6.76294 | 6432 ft | 271 kts | 358° |
| 2026-05-04 08:27 | 51.00801 | 6.85114 | 4438 ft | 251 kts | 54° |
| 2026-05-04 08:28 | 51.01813 | 6.87318 | 4262 ft | 243 kts | 56° |
| 2026-05-04 08:28 | 51.02425 | 6.89760 | 4091 ft | 234 kts | 88° |
| 2026-05-04 08:28 | 51.02040 | 6.92162 | 3913 ft | 225 kts | 128° |
| 2026-05-04 08:28 | 51.01002 | 6.94013 | 3645 ft | 227 kts | 139° |
| 2026-05-04 08:29 | 50.99853 | 6.95756 | 3337 ft | 227 kts | 140° |
| 2026-05-04 08:29 | 50.98712 | 6.97438 | 3047 ft | 220 kts | 140° |
| 2026-05-04 08:29 | 50.97605 | 6.99047 | 2765 ft | 211 kts | 141° |
| 2026-05-04 08:31 | 50.91516 | 7.07872 | 1174 ft | 143 kts | 139° |
| 2026-05-04 08:33 | 50.86788 | 7.14697 | 256 ft | 28 kts | 136° |
| 2026-05-04 08:33 | 50.86705 | 7.14662 | 257 ft | 14 kts | 239° |
| 2026-05-04 08:35 | 50.86772 | 7.14099 | 249 ft | 11 kts | 336° |
| 2026-05-04 08:35 | 50.86844 | 7.14030 | 245 ft | 14 kts | 315° |
| 2026-05-04 08:35 | 50.86920 | 7.13923 | 242 ft | 15 kts | 320° |
| 2026-05-04 08:35 | 50.87000 | 7.13816 | 242 ft | 15 kts | 320° |
| 2026-05-04 08:37 | 50.87411 | 7.13186 | 231 ft | 9 kts | 263° |
| 2026-05-04 08:37 | 50.87367 | 7.13115 | 231 ft | 9 kts | 226° |
| 2026-05-04 08:37 | 50.87346 | 7.13079 | 231 ft | 0 kts | 227° |